createdAt,value
2022-08-08T00:02:02.990Z,90.00
2022-08-08T00:04:48.855Z,90.40
2022-08-08T00:07:29.110Z,90.60
2022-08-08T00:10:10.710Z,90.50
2022-08-08T00:13:02.525Z,90.30
2022-08-08T00:15:57.625Z,90.70
2022-08-08T00:18:42.753Z,91.00
2022-08-08T00:21:17.544Z,91.30
2022-08-08T00:24:02.642Z,91.40
2022-08-08T00:26:38.570Z,92.30
2022-08-08T00:29:17.481Z,92.80
2022-08-08T00:32:51.979Z,92.30
2022-08-08T00:35:24.842Z,92.50
2022-08-08T00:38:31.404Z,92.80
2022-08-08T00:41:55.512Z,93.20
2022-08-08T00:44:27.680Z,93.10
2022-08-08T00:47:04.470Z,92.70
2022-08-08T00:50:11.968Z,93.10
2022-08-08T00:52:56.143Z,93.40
2022-08-08T00:55:54.040Z,93.20
2022-08-08T00:58:36.621Z,93.70
2022-08-08T01:01:29.361Z,94.20
2022-08-08T01:04:07.194Z,94.40
2022-08-08T01:07:12.692Z,94.40
2022-08-08T01:10:09.189Z,94.70
2022-08-08T01:12:52.116Z,95.00
2022-08-08T01:15:37.010Z,95.60
2022-08-08T01:18:53.320Z,95.80
2022-08-08T01:22:09.976Z,96.00
2022-08-08T01:24:38.649Z,96.40
2022-08-08T01:27:32.682Z,96.40
2022-08-08T01:30:40.714Z,97.20
2022-08-08T01:33:33.638Z,97.20
2022-08-08T01:36:19.166Z,97.60
2022-08-08T01:39:06.742Z,97.60
2022-08-08T01:41:46.584Z,97.80
2022-08-08T01:44:43.763Z,97.70
2022-08-08T01:48:16.175Z,98.40
2022-08-08T01:50:42.691Z,98.50
2022-08-08T01:55:16.094Z,99.00
2022-08-08T01:56:55.087Z,99.10
2022-08-08T02:00:02.208Z,99.10
2022-08-08T02:03:07.274Z,99.10
2022-08-08T02:05:55.692Z,99.00
2022-08-08T02:08:39.207Z,99.20
2022-08-08T02:11:59.609Z,99.20
2022-08-08T02:14:26.108Z,98.80
2022-08-08T02:17:25.690Z,98.80
2022-08-08T02:20:14.721Z,98.50
2022-08-08T02:23:31.739Z,98.70
2022-08-08T02:26:15.858Z,99.10
2022-08-08T02:28:56.792Z,99.90
2022-08-08T02:31:58.785Z,99.40
2022-08-08T02:35:07.988Z,99.30
2022-08-08T02:38:11.440Z,99.90
2022-08-08T02:41:17.866Z,99.90
2022-08-08T02:44:56.499Z,99.90
2022-08-08T02:47:59.917Z,99.90
2022-08-08T02:50:55.935Z,99.90
2022-08-08T02:53:47.923Z,99.90
2022-08-08T02:56:39.520Z,99.90
2022-08-08T02:59:57.536Z,99.90
2022-08-08T03:02:47.663Z,99.90
2022-08-08T03:05:20.999Z,99.90
2022-08-08T03:08:06.487Z,99.90
2022-08-08T03:11:00.801Z,99.90
2022-08-08T03:15:56.685Z,99.90
2022-08-08T03:17:20.022Z,99.90
2022-08-08T03:20:10.599Z,99.90
2022-08-08T03:23:04.639Z,99.90
2022-08-08T03:25:35.584Z,99.90
2022-08-08T03:28:23.537Z,99.90
2022-08-08T03:31:07.565Z,99.90
2022-08-08T03:33:56.003Z,99.90
2022-08-08T03:36:30.647Z,99.90
2022-08-08T03:39:15.080Z,99.90
2022-08-08T03:42:27.393Z,99.90
2022-08-08T03:44:35.469Z,99.90
2022-08-08T03:47:17.614Z,99.90
2022-08-08T03:50:00.868Z,99.90
2022-08-08T03:52:31.720Z,99.90
2022-08-08T03:55:10.928Z,99.90
2022-08-08T03:58:33.248Z,99.90
2022-08-08T04:00:56.947Z,99.90
2022-08-08T04:03:58.517Z,99.90
2022-08-08T04:06:29.866Z,99.90
2022-08-08T04:09:10.389Z,99.90
2022-08-08T04:11:58.624Z,99.90
2022-08-08T04:14:34.749Z,99.90
2022-08-08T04:17:04.430Z,99.90
2022-08-08T04:19:36.739Z,99.90
2022-08-08T04:22:04.689Z,99.90
2022-08-08T04:24:31.992Z,99.90
2022-08-08T04:27:02.276Z,99.90
2022-08-08T04:29:37.625Z,99.90
2022-08-08T04:32:06.795Z,99.90
2022-08-08T04:34:49.462Z,99.90
2022-08-08T04:37:31.936Z,99.90
2022-08-08T04:40:06.751Z,99.90
2022-08-08T04:42:36.697Z,99.90
2022-08-08T04:45:05.540Z,99.90
2022-08-08T04:47:32.538Z,99.90
2022-08-08T04:50:04.909Z,99.90
2022-08-08T04:52:33.707Z,99.90
2022-08-08T04:55:04.206Z,99.90
2022-08-08T04:57:34.333Z,99.90
2022-08-08T05:00:02.227Z,99.90
2022-08-08T05:02:31.081Z,99.90
2022-08-08T05:04:59.999Z,99.90
2022-08-08T05:07:38.044Z,99.90
2022-08-08T05:10:12.279Z,99.90
2022-08-08T05:12:59.806Z,99.90
2022-08-08T05:16:48.545Z,99.90
2022-08-08T05:18:15.443Z,99.90
2022-08-08T05:20:50.111Z,99.90
2022-08-08T05:23:17.764Z,99.90
2022-08-08T05:25:46.854Z,99.90
2022-08-08T05:28:14.857Z,99.90
2022-08-08T05:30:47.405Z,99.90
2022-08-08T05:33:16.891Z,99.90
2022-08-08T05:35:46.324Z,99.90
2022-08-08T05:38:31.650Z,99.90
2022-08-08T05:41:02.886Z,99.90
2022-08-08T05:43:39.391Z,99.90
2022-08-08T05:46:21.113Z,99.90
2022-08-08T05:48:54.404Z,99.90
2022-08-08T05:51:22.452Z,99.90
2022-08-08T05:54:24.322Z,99.90
2022-08-08T05:56:42.421Z,99.90
2022-08-08T06:00:00.958Z,99.90
2022-08-08T06:02:34.095Z,99.90
2022-08-08T06:05:03.109Z,99.90
2022-08-08T06:07:51.415Z,99.90
2022-08-08T06:10:32.778Z,99.90
2022-08-08T06:13:00.999Z,99.30
2022-08-08T06:15:38.683Z,98.80
2022-08-08T06:18:20.710Z,98.90
2022-08-08T06:20:50.389Z,98.50
2022-08-08T06:23:32.679Z,98.60
2022-08-08T06:26:39.030Z,98.30
2022-08-08T06:29:26.820Z,98.20
2022-08-08T06:32:11.446Z,97.80
2022-08-08T06:34:52.463Z,98.10
2022-08-08T06:37:28.798Z,97.70
2022-08-08T06:40:07.175Z,97.90
2022-08-08T06:42:38.554Z,97.60
2022-08-08T06:45:06.891Z,97.10
2022-08-08T06:47:58.643Z,97.30
2022-08-08T06:50:32.295Z,97.30
2022-08-08T06:53:09.690Z,96.70
2022-08-08T06:55:42.152Z,96.20
2022-08-08T06:58:10.416Z,96.20
2022-08-08T07:00:43.151Z,96.30
2022-08-08T07:03:51.527Z,96.10
2022-08-08T07:06:05.519Z,96.00
2022-08-08T07:08:39.785Z,96.50
2022-08-08T07:11:09.617Z,97.00
2022-08-08T07:14:00.780Z,97.10
2022-08-08T07:16:51.344Z,96.90
2022-08-08T07:19:38.223Z,96.40
2022-08-08T07:22:12.077Z,96.30
2022-08-08T07:24:54.126Z,96.30
2022-08-08T07:27:35.459Z,96.00
2022-08-08T07:30:21.223Z,95.90
2022-08-08T07:32:53.633Z,96.00
2022-08-08T07:35:21.962Z,96.00
2022-08-08T07:38:04.883Z,95.40
2022-08-08T07:40:40.068Z,95.10
2022-08-08T07:43:08.942Z,95.20
2022-08-08T07:46:05.217Z,95.10
2022-08-08T07:48:25.136Z,94.90
2022-08-08T07:51:00.853Z,94.50
2022-08-08T07:54:02.400Z,94.40
2022-08-08T07:56:50.031Z,93.70
2022-08-08T07:59:19.408Z,93.30
2022-08-08T08:02:35.579Z,93.50
2022-08-08T08:04:52.129Z,93.00
2022-08-08T08:07:25.915Z,93.10
2022-08-08T08:09:54.723Z,92.80
2022-08-08T08:12:31.936Z,92.30
2022-08-08T08:15:09.812Z,92.40
2022-08-08T08:17:49.130Z,92.20
2022-08-08T08:20:30.281Z,92.20
2022-08-08T08:22:57.682Z,91.90
2022-08-08T08:25:42.950Z,92.00
2022-08-08T08:28:17.035Z,91.90
2022-08-08T08:30:51.753Z,91.10
2022-08-08T08:33:20.296Z,91.10
2022-08-08T08:36:18.765Z,91.10
2022-08-08T08:38:34.754Z,90.70
2022-08-08T08:41:16.816Z,90.40
2022-08-08T08:43:46.413Z,90.40
2022-08-08T08:46:17.500Z,90.20
2022-08-08T08:48:49.401Z,90.10
2022-08-08T08:51:17.921Z,89.10
2022-08-08T08:54:02.066Z,89.20
2022-08-08T08:56:29.872Z,88.90
2022-08-08T08:59:01.488Z,89.30
2022-08-08T09:01:33.676Z,88.10
2022-08-08T09:04:10.082Z,87.50
2022-08-08T09:06:58.819Z,86.60
2022-08-08T09:09:39.189Z,86.80
2022-08-08T09:12:21.584Z,86.10
2022-08-08T09:14:51.548Z,85.00
2022-08-08T09:17:19.729Z,84.50
2022-08-08T09:21:57.823Z,84.60
2022-08-08T09:22:47.638Z,83.30
2022-08-08T09:25:15.481Z,82.20
2022-08-08T09:27:57.936Z,81.70
2022-08-08T09:30:27.966Z,80.20
2022-08-08T09:33:12.270Z,77.00
2022-08-08T09:35:49.824Z,76.60
2022-08-08T09:38:53.698Z,77.60
2022-08-08T09:41:33.568Z,75.40
2022-08-08T09:44:15.286Z,75.80
2022-08-08T09:46:57.601Z,76.00
2022-08-08T09:49:42.713Z,75.50
2022-08-08T09:52:57.516Z,75.00
2022-08-08T09:55:12.942Z,75.40
2022-08-08T09:57:55.749Z,76.10
2022-08-08T10:00:43.506Z,74.60
2022-08-08T10:03:19.911Z,75.70
2022-08-08T10:05:47.521Z,75.20
2022-08-08T10:08:16.991Z,73.80
2022-08-08T10:10:50.040Z,74.30
2022-08-08T10:13:32.434Z,73.40
2022-08-08T10:16:05.178Z,73.80
2022-08-08T10:18:35.139Z,72.50
2022-08-08T10:21:24.760Z,73.30
2022-08-08T10:24:03.152Z,74.90
2022-08-08T10:26:57.416Z,72.80
2022-08-08T10:29:57.096Z,73.50
2022-08-08T10:32:40.460Z,71.10
2022-08-08T10:36:07.067Z,72.90
2022-08-08T10:38:08.071Z,72.30
2022-08-08T10:40:38.604Z,72.20
2022-08-08T10:43:06.849Z,71.40
2022-08-08T10:45:57.234Z,72.40
2022-08-08T10:48:56.776Z,71.60
2022-08-08T10:51:26.292Z,69.70
2022-08-08T10:53:57.765Z,69.90
2022-08-08T10:56:27.018Z,67.60
2022-08-08T10:59:01.969Z,68.30
2022-08-08T11:01:33.526Z,66.60
2022-08-08T11:04:04.554Z,65.00
2022-08-08T11:06:36.525Z,63.80
2022-08-08T11:09:19.712Z,63.20
2022-08-08T11:12:05.993Z,62.50
2022-08-08T11:15:12.247Z,63.60
2022-08-08T11:17:59.606Z,62.60
2022-08-08T11:20:29.544Z,62.20
2022-08-08T11:23:05.518Z,63.10
2022-08-08T11:25:51.736Z,62.70
2022-08-08T11:28:29.047Z,61.60
2022-08-08T11:31:00.821Z,61.70
2022-08-08T11:33:52.471Z,60.70
2022-08-08T11:36:28.981Z,60.70
2022-08-08T11:38:57.179Z,59.70
2022-08-08T11:41:27.896Z,58.70
2022-08-08T11:44:02.469Z,59.30
2022-08-08T11:46:32.544Z,59.00
2022-08-08T11:49:07.631Z,59.60
2022-08-08T11:51:39.530Z,58.80
2022-08-08T11:54:31.390Z,59.70
2022-08-08T11:57:23.833Z,60.10
2022-08-08T12:00:05.993Z,59.60
2022-08-08T12:02:45.370Z,58.20
2022-08-08T12:05:13.826Z,59.30
2022-08-08T12:07:53.036Z,59.00
2022-08-08T12:10:25.777Z,58.40
2022-08-08T12:13:01.794Z,57.70
2022-08-08T12:15:41.991Z,59.00
2022-08-08T12:18:15.985Z,59.60
2022-08-08T12:20:45.312Z,59.10
2022-08-08T12:23:25.230Z,59.60
2022-08-08T12:26:08.052Z,59.40
2022-08-08T12:28:35.119Z,58.60
2022-08-08T12:31:10.029Z,59.40
2022-08-08T12:34:01.834Z,60.00
2022-08-08T12:36:46.422Z,57.80
2022-08-08T12:40:01.188Z,58.00
2022-08-08T12:42:20.977Z,57.50
2022-08-08T12:44:50.387Z,58.00
2022-08-08T12:47:57.866Z,57.60
2022-08-08T12:50:15.083Z,58.60
2022-08-08T12:52:53.722Z,59.10
2022-08-08T12:55:29.235Z,56.80
2022-08-08T12:58:15.732Z,57.10
2022-08-08T13:00:46.644Z,59.10
2022-08-08T13:03:33.354Z,59.10
2022-08-08T13:06:13.738Z,57.90
2022-08-08T13:08:53.413Z,57.50
2022-08-08T13:12:19.734Z,57.90
2022-08-08T13:14:20.988Z,56.70
2022-08-08T13:16:49.629Z,57.70
2022-08-08T13:19:17.800Z,56.50
2022-08-08T13:21:53.263Z,57.10
2022-08-08T13:24:40.904Z,56.40
2022-08-08T13:27:13.382Z,57.80
2022-08-08T13:29:59.962Z,57.90
2022-08-08T13:32:35.976Z,56.80
2022-08-08T13:35:04.944Z,57.40
2022-08-08T13:38:04.821Z,57.30
2022-08-08T13:40:28.147Z,57.00
2022-08-08T13:42:56.483Z,58.60
2022-08-08T13:45:26.231Z,57.30
2022-08-08T13:48:01.464Z,56.80
2022-08-08T13:50:36.533Z,56.60
2022-08-08T13:53:24.730Z,56.80
2022-08-08T13:56:01.347Z,56.60
2022-08-08T13:58:30.427Z,57.40
2022-08-08T14:00:57.841Z,57.20
2022-08-08T14:03:46.989Z,56.20
2022-08-08T14:06:32.206Z,55.80
2022-08-08T14:09:24.990Z,55.10
2022-08-08T14:11:48.603Z,56.30
2022-08-08T14:14:16.514Z,56.50
2022-08-08T14:16:51.581Z,56.00
2022-08-08T14:19:21.339Z,55.00
2022-08-08T14:22:19.981Z,54.60
2022-08-08T14:24:59.820Z,55.30
2022-08-08T14:27:34.192Z,54.40
2022-08-08T14:30:18.274Z,54.60
2022-08-08T14:32:53.495Z,54.20
2022-08-08T14:35:28.227Z,55.10
2022-08-08T14:38:34.283Z,55.10
2022-08-08T14:40:59.576Z,55.50
2022-08-08T14:44:10.419Z,53.40
2022-08-08T14:46:30.994Z,55.70
2022-08-08T14:49:09.534Z,54.20
2022-08-08T14:51:53.022Z,52.40
2022-08-08T14:54:28.795Z,53.00
2022-08-08T14:56:57.956Z,52.50
2022-08-08T14:59:31.730Z,53.30
2022-08-08T15:02:15.283Z,52.20
2022-08-08T15:04:45.618Z,53.00
2022-08-08T15:07:22.634Z,52.20
2022-08-08T15:09:50.198Z,53.90
2022-08-08T15:12:27.310Z,53.30
2022-08-08T15:14:55.632Z,54.50
2022-08-08T15:17:24.120Z,54.00
2022-08-08T15:19:52.042Z,54.60
2022-08-08T15:22:23.612Z,54.20
2022-08-08T15:24:51.624Z,54.10
2022-08-08T15:27:58.286Z,53.10
2022-08-08T15:30:08.144Z,54.50
2022-08-08T15:32:40.448Z,53.10
2022-08-08T15:35:11.001Z,53.30
2022-08-08T15:37:39.261Z,53.10
2022-08-08T15:40:10.919Z,52.40
2022-08-08T15:42:39.699Z,52.90
2022-08-08T15:45:07.679Z,52.40
2022-08-08T15:47:35.453Z,52.90
2022-08-08T15:50:03.423Z,51.90
2022-08-08T15:52:33.308Z,53.10
2022-08-08T15:55:02.132Z,52.90
2022-08-08T15:57:35.635Z,52.80
2022-08-08T16:00:25.853Z,52.20
2022-08-08T16:02:55.749Z,51.80
2022-08-08T16:05:25.319Z,52.60
2022-08-08T16:08:03.572Z,51.50
2022-08-08T16:13:09.109Z,51.90
2022-08-08T16:13:30.420Z,52.60
2022-08-08T16:16:09.008Z,52.10
2022-08-08T16:18:40.205Z,53.00
2022-08-08T16:21:25.793Z,54.30
2022-08-08T16:23:56.146Z,52.80
2022-08-08T16:26:34.037Z,52.30
2022-08-08T16:29:07.020Z,52.10
2022-08-08T16:31:37.295Z,51.00
2022-08-08T16:34:04.559Z,52.50
2022-08-08T16:36:33.391Z,52.10
2022-08-08T16:39:09.673Z,51.50
2022-08-08T16:41:51.169Z,51.40
2022-08-08T16:44:27.657Z,52.20
2022-08-08T16:47:18.377Z,51.40
2022-08-08T16:49:49.529Z,52.20
2022-08-08T16:55:01.539Z,51.00
2022-08-08T16:55:34.344Z,51.10
2022-08-08T16:58:15.593Z,51.30
2022-08-08T17:00:43.081Z,50.70
2022-08-08T17:03:24.204Z,52.00
2022-08-08T17:05:53.815Z,51.90
2022-08-08T17:08:23.745Z,51.30
2022-08-08T17:10:57.571Z,51.40
2022-08-08T17:13:27.562Z,50.90
2022-08-08T17:16:14.931Z,50.80
2022-08-08T17:18:42.616Z,50.30
2022-08-08T17:21:10.711Z,50.10
2022-08-08T17:24:01.460Z,50.90
2022-08-08T17:26:29.432Z,51.90
2022-08-08T17:28:58.511Z,51.10
2022-08-08T17:31:44.985Z,51.10
2022-08-08T17:34:54.411Z,50.80
2022-08-08T17:37:06.839Z,51.10
2022-08-08T17:40:04.977Z,50.40
2022-08-08T17:42:24.666Z,51.30
2022-08-08T17:44:52.785Z,51.30
2022-08-08T17:47:23.736Z,51.70
2022-08-08T17:50:01.459Z,52.20
2022-08-08T17:52:34.279Z,51.10
2022-08-08T17:55:05.523Z,52.00
2022-08-08T17:57:50.811Z,52.40
2022-08-08T18:00:25.923Z,51.90
2022-08-08T18:03:07.867Z,51.40
2022-08-08T18:05:48.755Z,51.40
2022-08-08T18:08:37.783Z,52.00
2022-08-08T18:11:15.311Z,52.20
2022-08-08T18:13:43.520Z,52.10
2022-08-08T18:16:11.479Z,52.40
2022-08-08T18:18:45.519Z,52.60
2022-08-08T18:21:35.083Z,52.20
2022-08-08T18:24:13.861Z,52.50
2022-08-08T18:26:53.942Z,52.30
2022-08-08T18:29:27.321Z,52.90
2022-08-08T18:31:58.877Z,53.00
2022-08-08T18:34:27.150Z,53.30
2022-08-08T18:36:55.686Z,53.60
2022-08-08T18:39:27.566Z,54.70
2022-08-08T18:42:02.892Z,54.10
2022-08-08T18:44:34.669Z,54.50
2022-08-08T18:47:02.870Z,55.20
2022-08-08T18:49:41.064Z,55.40
2022-08-08T18:52:22.819Z,55.40
2022-08-08T18:55:00.871Z,55.70
2022-08-08T18:57:41.878Z,56.00
2022-08-08T19:00:16.802Z,56.70
2022-08-08T19:02:55.592Z,57.20
2022-08-08T19:05:38.465Z,57.50
2022-08-08T19:08:25.225Z,57.60
2022-08-08T19:10:59.953Z,57.90
2022-08-08T19:13:52.419Z,57.70
2022-08-08T19:16:19.012Z,58.00
2022-08-08T19:18:53.181Z,58.40
2022-08-08T19:21:30.974Z,58.20
2022-08-08T19:24:05.467Z,58.60
2022-08-08T19:26:37.674Z,58.80
2022-08-08T19:29:06.318Z,59.10
2022-08-08T19:31:35.413Z,59.10
2022-08-08T19:34:29.602Z,59.50
2022-08-08T19:36:59.285Z,59.40
2022-08-08T19:39:35.037Z,60.00
2022-08-08T19:42:04.764Z,59.90
2022-08-08T19:44:43.158Z,59.90
2022-08-08T19:47:13.755Z,60.20
2022-08-08T19:49:43.074Z,60.30
2022-08-08T19:52:13.306Z,60.50
2022-08-08T19:54:43.056Z,60.60
2022-08-08T19:57:10.490Z,60.80
2022-08-08T19:59:42.077Z,61.00
2022-08-08T20:02:10.611Z,61.20
2022-08-08T20:04:38.161Z,61.50
2022-08-08T20:08:29.240Z,61.40
2022-08-08T20:09:58.706Z,61.60
2022-08-08T20:12:32.322Z,63.30
2022-08-08T20:15:14.545Z,64.60
2022-08-08T20:17:46.014Z,65.00
2022-08-08T20:20:18.969Z,65.10
2022-08-08T20:22:48.778Z,65.30
2022-08-08T20:25:20.530Z,65.90
2022-08-08T20:27:49.567Z,64.70
2022-08-08T20:30:53.555Z,65.70
2022-08-08T20:33:18.391Z,65.30
2022-08-08T20:35:56.911Z,65.40
2022-08-08T20:38:32.110Z,65.50
2022-08-08T20:40:59.411Z,65.10
2022-08-08T20:43:43.511Z,65.30
2022-08-08T20:46:11.345Z,66.00
2022-08-08T20:48:38.294Z,66.00
2022-08-08T20:51:07.843Z,66.10
2022-08-08T20:54:00.213Z,66.00
2022-08-08T20:56:35.893Z,66.60
2022-08-08T20:59:10.065Z,66.30
2022-08-08T21:02:06.822Z,66.20
2022-08-08T21:04:27.577Z,66.50
2022-08-08T21:06:55.557Z,66.30
2022-08-08T21:09:23.238Z,66.60
2022-08-08T21:12:03.240Z,66.90
2022-08-08T21:14:34.382Z,67.10
2022-08-08T21:17:05.891Z,67.20
2022-08-08T21:19:46.065Z,67.60
2022-08-08T21:22:15.792Z,67.20
2022-08-08T21:24:53.810Z,67.30
2022-08-08T21:28:06.580Z,67.60
2022-08-08T21:30:16.355Z,67.20
2022-08-08T21:32:50.990Z,68.10
2022-08-08T21:36:13.796Z,68.80
2022-08-08T21:38:08.554Z,68.60
2022-08-08T21:40:54.774Z,69.50
2022-08-08T21:43:24.540Z,69.70
2022-08-08T21:48:04.937Z,69.30
2022-08-08T21:48:44.718Z,69.90
2022-08-08T21:51:45.870Z,71.10
2022-08-08T21:54:27.210Z,71.50
2022-08-08T21:56:55.364Z,72.00
2022-08-08T21:59:22.910Z,73.40
2022-08-08T22:01:52.418Z,73.80
2022-08-08T22:04:24.589Z,73.40
2022-08-08T22:06:52.711Z,74.60
2022-08-08T22:09:20.294Z,72.60
2022-08-08T22:12:04.916Z,72.60
2022-08-08T22:14:36.493Z,75.40
2022-08-08T22:17:04.187Z,74.70
2022-08-08T22:20:11.576Z,74.30
2022-08-08T22:22:18.638Z,74.20
2022-08-08T22:24:45.697Z,74.70
2022-08-08T22:27:15.039Z,74.50
2022-08-08T22:30:01.564Z,75.20
2022-08-08T22:32:29.523Z,75.90
2022-08-08T22:34:56.429Z,75.90
2022-08-08T22:37:49.740Z,75.90
2022-08-08T22:40:16.844Z,76.00
2022-08-08T22:42:45.740Z,76.60
2022-08-08T22:45:15.715Z,75.90
2022-08-08T22:47:49.457Z,75.90
2022-08-08T22:50:27.252Z,75.40
2022-08-08T22:54:34.034Z,74.90
2022-08-08T22:55:58.786Z,74.20
2022-08-08T22:58:34.747Z,73.80
2022-08-08T23:01:26.720Z,73.50
2022-08-08T23:03:56.314Z,73.30
2022-08-08T23:06:27.255Z,72.60
2022-08-08T23:08:58.944Z,73.00
2022-08-08T23:11:58.126Z,73.30
2022-08-08T23:14:17.654Z,73.60
2022-08-08T23:16:48.217Z,74.70
2022-08-08T23:19:21.590Z,75.10
2022-08-08T23:21:48.845Z,75.20
2022-08-08T23:24:23.119Z,77.00
2022-08-08T23:26:55.484Z,78.20
2022-08-08T23:29:25.278Z,79.90
2022-08-08T23:31:52.578Z,80.40
2022-08-08T23:34:20.339Z,81.10
2022-08-08T23:36:49.028Z,80.90
2022-08-08T23:39:16.003Z,81.30
2022-08-08T23:41:45.653Z,82.40
2022-08-08T23:44:13.162Z,83.20
2022-08-08T23:49:01.953Z,81.80
2022-08-08T23:49:27.918Z,81.30
2022-08-08T23:52:04.812Z,81.90
2022-08-08T23:54:41.306Z,82.50
2022-08-08T23:57:26.887Z,83.70
